createdAt,value
2023-01-21T00:01:17.930Z,6.93
2023-01-21T00:04:01.746Z,6.65
2023-01-21T00:06:45.840Z,6.36
2023-01-21T00:09:29.582Z,6.51
2023-01-21T00:12:13.349Z,6.67
2023-01-21T00:14:58.538Z,6.08
2023-01-21T00:17:44.015Z,5.87
2023-01-21T00:20:27.774Z,5.82
2023-01-21T00:23:11.746Z,5.74
2023-01-21T00:25:59.209Z,5.59
2023-01-21T00:28:44.643Z,5.80
2023-01-21T00:31:30.847Z,5.65
2023-01-21T00:34:15.101Z,6.06
2023-01-21T00:36:58.947Z,5.96
2023-01-21T00:39:43.259Z,5.88
2023-01-21T00:42:28.027Z,6.06
2023-01-21T00:45:12.581Z,5.54
2023-01-21T00:47:57.810Z,5.71
2023-01-21T00:50:42.449Z,5.66
2023-01-21T00:53:26.525Z,5.47
2023-01-21T00:56:12.902Z,5.47
2023-01-21T00:58:57.164Z,5.62
2023-01-21T01:01:41.286Z,5.52
2023-01-21T01:04:26.733Z,5.41
2023-01-21T01:07:10.536Z,5.40
2023-01-21T01:09:54.592Z,5.31
2023-01-21T01:12:38.718Z,5.28
2023-01-21T01:15:22.612Z,5.29
2023-01-21T01:18:06.566Z,5.23
2023-01-21T01:20:52.243Z,5.06
2023-01-21T01:23:36.125Z,5.09
2023-01-21T01:26:21.193Z,5.01
2023-01-21T01:29:05.853Z,4.88
2023-01-21T01:31:49.813Z,4.92
2023-01-21T01:34:33.744Z,4.63
2023-01-21T01:37:19.102Z,4.70
2023-01-21T01:40:03.069Z,4.80
2023-01-21T01:42:47.133Z,4.77
2023-01-21T01:45:31.002Z,4.88
2023-01-21T01:48:19.282Z,4.96
2023-01-21T01:51:07.535Z,4.97
2023-01-21T01:53:53.609Z,4.46
2023-01-21T01:56:43.372Z,4.52
2023-01-21T01:59:27.899Z,4.66
2023-01-21T02:02:15.688Z,4.82
2023-01-21T02:05:03.233Z,4.66
2023-01-21T02:07:47.615Z,4.77
2023-01-21T02:10:34.617Z,4.86
2023-01-21T02:13:19.381Z,4.29
2023-01-21T02:16:16.374Z,4.09
2023-01-21T02:19:19.003Z,4.51
2023-01-21T02:22:11.667Z,4.32
2023-01-21T02:25:30.749Z,4.53
2023-01-21T02:28:49.288Z,4.76
2023-01-21T02:32:10.432Z,4.86
2023-01-21T02:35:03.013Z,4.45
2023-01-21T02:37:53.084Z,4.52
2023-01-21T02:40:44.977Z,4.19
2023-01-21T02:43:33.775Z,4.34
2023-01-21T02:46:23.142Z,4.51
2023-01-21T02:49:14.461Z,4.55
2023-01-21T02:51:59.947Z,4.48
2023-01-21T02:54:55.371Z,4.32
2023-01-21T02:57:46.493Z,4.26
2023-01-21T03:00:41.869Z,4.43
2023-01-21T03:03:58.336Z,4.36
2023-01-21T03:06:50.398Z,4.33
2023-01-21T03:09:37.563Z,4.29
2023-01-21T03:12:32.531Z,4.23
2023-01-21T03:15:41.416Z,4.37
2023-01-21T03:18:31.003Z,4.34
2023-01-21T03:21:19.130Z,4.44
2023-01-21T03:24:03.806Z,4.10
2023-01-21T03:26:53.879Z,4.49
2023-01-21T03:29:42.324Z,4.09
2023-01-21T03:32:29.294Z,4.07
2023-01-21T03:35:17.579Z,3.77
2023-01-21T03:38:07.985Z,4.12
2023-01-21T03:40:56.431Z,3.96
2023-01-21T03:43:41.817Z,4.01
2023-01-21T03:46:34.470Z,3.71
2023-01-21T03:49:23.955Z,3.68
2023-01-21T03:52:10.140Z,3.72
2023-01-21T03:54:55.125Z,3.81
2023-01-21T03:57:39.212Z,3.71
2023-01-21T04:00:25.205Z,3.90
2023-01-21T04:03:09.127Z,3.82
2023-01-21T04:05:53.201Z,3.49
2023-01-21T04:08:37.156Z,3.51
2023-01-21T04:11:21.068Z,3.64
2023-01-21T04:14:05.085Z,3.75
2023-01-21T04:16:50.335Z,3.24
2023-01-21T04:19:34.103Z,3.63
2023-01-21T04:22:18.330Z,3.67
2023-01-21T04:25:02.281Z,3.65
2023-01-21T04:27:47.081Z,3.63
2023-01-21T04:30:30.986Z,3.65
2023-01-21T04:33:16.848Z,3.17
2023-01-21T04:36:01.580Z,3.62
2023-01-21T04:38:45.476Z,3.61
2023-01-21T04:41:29.413Z,3.83
2023-01-21T04:44:13.236Z,3.75
2023-01-21T04:46:56.942Z,3.70
2023-01-21T04:49:42.699Z,4.01
2023-01-21T04:52:26.792Z,3.93
2023-01-21T04:55:11.316Z,4.13
2023-01-21T04:57:56.647Z,4.22
2023-01-21T05:00:40.705Z,4.42
2023-01-21T05:03:24.574Z,4.42
2023-01-21T05:06:10.059Z,4.45
2023-01-21T05:08:53.917Z,4.31
2023-01-21T05:11:37.837Z,4.35
2023-01-21T05:14:21.881Z,4.45
2023-01-21T05:17:06.114Z,4.28
2023-01-21T05:19:51.279Z,3.75
2023-01-21T05:22:36.603Z,4.16
2023-01-21T05:25:20.741Z,4.32
2023-01-21T05:28:04.698Z,4.38
2023-01-21T05:30:48.707Z,4.39
2023-01-21T05:33:33.783Z,4.31
2023-01-21T05:36:17.686Z,4.07
2023-01-21T05:39:03.115Z,4.20
2023-01-21T05:41:46.997Z,4.34
2023-01-21T05:44:30.932Z,4.30
2023-01-21T05:47:15.248Z,4.30
2023-01-21T05:49:59.098Z,4.59
2023-01-21T05:52:43.168Z,4.36
2023-01-21T05:55:28.464Z,4.52
2023-01-21T05:58:12.200Z,4.79
2023-01-21T06:00:58.262Z,4.67
2023-01-21T06:03:42.119Z,4.99
2023-01-21T06:06:26.040Z,5.11
2023-01-21T06:09:09.902Z,5.27
2023-01-21T06:11:55.059Z,5.41
2023-01-21T06:14:38.887Z,5.47
2023-01-21T06:17:22.663Z,5.62
2023-01-21T06:20:07.593Z,5.95
2023-01-21T06:22:51.320Z,5.96
2023-01-21T06:25:35.508Z,6.31
2023-01-21T06:28:20.666Z,6.53
2023-01-21T06:31:04.719Z,6.45
2023-01-21T06:33:48.632Z,6.51
2023-01-21T06:36:32.464Z,6.95
2023-01-21T06:39:16.521Z,7.12
2023-01-21T06:42:00.371Z,7.24
2023-01-21T06:44:45.525Z,7.41
2023-01-21T06:47:29.416Z,7.50
2023-01-21T06:50:15.963Z,7.52
2023-01-21T06:53:00.162Z,7.59
2023-01-21T06:55:43.959Z,7.76
2023-01-21T06:58:27.711Z,7.86
2023-01-21T07:01:12.922Z,7.77
2023-01-21T07:03:56.713Z,8.05
2023-01-21T07:06:40.682Z,8.19
2023-01-21T07:09:24.603Z,8.24
2023-01-21T07:12:08.571Z,8.31
2023-01-21T07:14:52.334Z,8.28
2023-01-21T07:17:37.523Z,8.23
2023-01-21T07:20:22.743Z,8.45
2023-01-21T07:23:06.550Z,8.45
2023-01-21T07:25:50.603Z,8.74
2023-01-21T07:28:34.873Z,8.82
2023-01-21T07:31:18.784Z,9.01
2023-01-21T07:34:04.627Z,9.11
2023-01-21T07:36:48.594Z,9.27
2023-01-21T07:39:32.376Z,9.39
2023-01-21T07:42:16.164Z,9.56
2023-01-21T07:45:02.843Z,9.69
2023-01-21T07:47:47.499Z,9.79
2023-01-21T07:50:32.875Z,9.98
2023-01-21T07:53:16.696Z,10.04
2023-01-21T07:56:05.002Z,10.11
2023-01-21T07:58:48.874Z,9.56
2023-01-21T08:01:32.728Z,10.29
2023-01-21T08:04:16.582Z,10.41
2023-01-21T08:07:06.981Z,10.50
2023-01-21T08:09:50.861Z,10.60
2023-01-21T08:12:35.269Z,10.83
2023-01-21T08:15:19.439Z,11.06
2023-01-21T08:18:03.587Z,11.21
2023-01-21T08:20:47.437Z,11.25
2023-01-21T08:23:32.687Z,11.33
2023-01-21T08:26:16.521Z,11.54
2023-01-21T08:29:01.031Z,11.64
2023-01-21T08:31:44.833Z,11.79
2023-01-21T08:34:28.824Z,11.70
2023-01-21T08:37:12.620Z,11.96
2023-01-21T08:39:57.757Z,11.84
2023-01-21T08:42:41.599Z,12.34
2023-01-21T08:45:25.428Z,12.41
2023-01-21T08:48:09.354Z,12.31
2023-01-21T08:50:53.150Z,12.49
2023-01-21T08:53:37.266Z,12.56
2023-01-21T08:56:22.408Z,12.65
2023-01-21T08:59:07.366Z,12.67
2023-01-21T09:01:51.236Z,13.14
2023-01-21T09:04:35.375Z,13.30
2023-01-21T09:07:19.218Z,13.45
2023-01-21T09:10:03.215Z,13.82
2023-01-21T09:12:48.455Z,13.56
2023-01-21T09:15:32.301Z,13.31
2023-01-21T09:18:16.265Z,13.54
2023-01-21T09:21:03.826Z,13.47
2023-01-21T09:23:47.752Z,13.67
2023-01-21T09:26:31.661Z,13.41
2023-01-21T09:29:16.845Z,13.66
2023-01-21T09:32:00.772Z,13.71
2023-01-21T09:34:44.675Z,13.41
2023-01-21T09:40:18.222Z,12.99
2023-01-21T09:43:11.586Z,12.83
2023-01-21T09:46:02.988Z,12.80
2023-01-21T09:48:50.502Z,11.91
2023-01-21T09:51:52.716Z,12.28
2023-01-21T09:54:39.746Z,12.34
2023-01-21T09:57:54.752Z,11.66
2023-01-21T10:00:45.690Z,12.47
2023-01-21T10:03:36.532Z,12.62
2023-01-21T10:06:29.302Z,12.57
2023-01-21T10:09:36.757Z,12.82
2023-01-21T10:12:32.599Z,13.01
2023-01-21T10:15:45.363Z,13.13
2023-01-21T10:18:33.617Z,13.17
2023-01-21T10:21:25.456Z,13.44
2023-01-21T10:24:15.680Z,12.99
2023-01-21T10:27:00.795Z,12.60
2023-01-21T10:29:44.766Z,13.26
2023-01-21T10:32:29.578Z,13.71
2023-01-21T10:35:18.973Z,13.30
2023-01-21T10:38:11.104Z,14.44
2023-01-21T10:41:03.330Z,14.03
2023-01-21T10:43:54.041Z,14.71
2023-01-21T10:46:46.609Z,14.44
2023-01-21T10:49:45.140Z,15.16
2023-01-21T10:52:38.994Z,14.15
2023-01-21T10:55:33.378Z,13.62
2023-01-21T10:58:25.653Z,14.85
2023-01-21T11:01:17.017Z,15.64
2023-01-21T11:04:05.884Z,16.02
2023-01-21T11:06:58.155Z,16.62
2023-01-21T11:09:48.637Z,15.52
2023-01-21T11:12:32.982Z,15.02
2023-01-21T11:15:19.105Z,14.52
2023-01-21T11:18:30.676Z,15.32
2023-01-21T11:21:20.012Z,15.14
2023-01-21T11:24:05.958Z,14.46
2023-01-21T11:26:53.589Z,14.60
2023-01-21T11:29:42.112Z,14.03
2023-01-21T11:32:28.463Z,15.04
2023-01-21T11:35:21.594Z,15.59
2023-01-21T11:38:06.193Z,15.48
2023-01-21T11:41:01.219Z,15.51
2023-01-21T11:43:48.714Z,15.09
2023-01-21T11:46:37.130Z,14.67
2023-01-21T11:49:26.709Z,14.55
2023-01-21T11:52:19.614Z,14.12
2023-01-21T11:55:04.929Z,14.59
2023-01-21T11:57:54.066Z,14.50
2023-01-21T12:00:39.606Z,14.53
2023-01-21T12:03:27.675Z,14.47
2023-01-21T12:06:18.964Z,13.15
2023-01-21T12:09:06.346Z,13.20
2023-01-21T12:12:12.628Z,13.19
2023-01-21T12:14:59.640Z,12.90
2023-01-21T12:17:53.443Z,13.03
2023-01-21T12:20:46.439Z,12.84
2023-01-21T12:23:45.804Z,12.82
2023-01-21T12:26:37.630Z,12.73
2023-01-21T12:29:37.530Z,12.57
2023-01-21T12:32:26.535Z,12.76
2023-01-21T12:35:17.765Z,13.01
2023-01-21T12:38:05.967Z,12.87
2023-01-21T12:40:56.588Z,13.38
2023-01-21T12:43:43.848Z,13.87
2023-01-21T12:46:35.178Z,13.28
2023-01-21T12:49:23.620Z,13.26
2023-01-21T12:52:16.811Z,12.89
2023-01-21T12:55:08.863Z,13.24
2023-01-21T12:57:58.801Z,13.12
2023-01-21T13:00:46.491Z,12.88
2023-01-21T13:03:38.697Z,12.57
2023-01-21T13:06:47.124Z,12.52
2023-01-21T13:09:42.523Z,12.91
2023-01-21T13:12:29.761Z,12.96
2023-01-21T13:15:19.386Z,12.67
2023-01-21T13:18:11.774Z,12.80
2023-01-21T13:21:01.843Z,12.47
2023-01-21T13:23:50.407Z,12.61
2023-01-21T13:26:44.182Z,12.45
2023-01-21T13:29:37.752Z,12.53
2023-01-21T13:32:35.860Z,12.42
2023-01-21T13:35:30.165Z,12.56
2023-01-21T13:38:25.557Z,12.80
2023-01-21T13:41:23.412Z,13.07
2023-01-21T13:44:42.091Z,13.14
2023-01-21T13:47:48.524Z,12.98
2023-01-21T13:50:49.385Z,13.03
2023-01-21T13:53:49.024Z,13.22
2023-01-21T13:56:47.811Z,13.30
2023-01-21T13:59:36.429Z,13.13
2023-01-21T14:02:27.505Z,13.20
2023-01-21T14:05:17.984Z,12.91
2023-01-21T14:08:07.296Z,13.06
2023-01-21T14:10:54.872Z,12.71
2023-01-21T14:14:18.206Z,12.46
2023-01-21T14:17:19.341Z,12.67
2023-01-21T14:20:33.525Z,12.69
2023-01-21T14:23:42.970Z,12.64
2023-01-21T14:26:53.159Z,12.65
2023-01-21T14:29:45.113Z,12.27
2023-01-21T14:32:35.674Z,12.26
2023-01-21T14:35:27.598Z,12.68
2023-01-21T14:38:19.818Z,12.75
2023-01-21T14:41:09.475Z,12.89
2023-01-21T14:43:54.242Z,12.22
2023-01-21T14:46:38.097Z,12.15
2023-01-21T14:49:40.944Z,12.15
2023-01-21T14:52:32.263Z,11.99
2023-01-21T14:55:30.192Z,11.69
2023-01-21T14:58:25.903Z,11.82
2023-01-21T15:01:25.455Z,11.87
2023-01-21T15:04:21.892Z,11.97
2023-01-21T15:07:10.604Z,11.75
2023-01-21T15:09:58.047Z,11.55
2023-01-21T15:12:50.469Z,11.42
2023-01-21T15:15:37.116Z,11.33
2023-01-21T15:18:27.156Z,11.29
2023-01-21T15:21:35.795Z,11.29
2023-01-21T15:24:26.126Z,11.34
2023-01-21T15:27:20.111Z,11.40
2023-01-21T15:30:27.651Z,11.33
2023-01-21T15:33:16.538Z,11.24
2023-01-21T15:36:02.640Z,11.14
2023-01-21T15:38:46.751Z,11.22
2023-01-21T15:41:43.466Z,11.23
2023-01-21T15:44:53.107Z,11.30
2023-01-21T15:47:49.823Z,11.07
2023-01-21T15:50:42.200Z,11.34
2023-01-21T15:53:41.163Z,11.48
2023-01-21T15:56:56.355Z,11.52
2023-01-21T16:00:08.825Z,11.49
2023-01-21T16:02:59.121Z,11.54
2023-01-21T16:05:51.462Z,11.52
2023-01-21T16:08:48.540Z,11.43
2023-01-21T16:11:50.667Z,11.33
2023-01-21T16:14:46.619Z,11.44
2023-01-21T16:17:44.368Z,11.74
2023-01-21T16:20:28.242Z,11.78
2023-01-21T16:23:15.996Z,11.89
2023-01-21T16:25:59.959Z,11.99
2023-01-21T16:28:45.782Z,11.91
2023-01-21T16:31:29.613Z,11.71
2023-01-21T16:34:14.916Z,11.77
2023-01-21T16:36:58.986Z,11.84
2023-01-21T16:39:43.984Z,11.87
2023-01-21T16:42:36.234Z,12.01
2023-01-21T16:45:23.400Z,12.11
2023-01-21T16:48:20.540Z,12.10
2023-01-21T16:51:06.564Z,11.73
2023-01-21T16:53:50.836Z,11.83
2023-01-21T16:56:34.628Z,11.75
2023-01-21T16:59:21.991Z,11.83
2023-01-21T17:02:07.120Z,11.60
2023-01-21T17:04:51.279Z,11.43
2023-01-21T17:07:43.577Z,11.53
2023-01-21T17:10:34.258Z,11.58
2023-01-21T17:13:18.190Z,11.37
2023-01-21T17:16:04.321Z,11.54
2023-01-21T17:18:54.443Z,11.66
2023-01-21T17:21:41.393Z,11.85
2023-01-21T17:24:30.273Z,11.83
2023-01-21T17:27:20.349Z,12.02
2023-01-21T17:30:29.318Z,11.86
2023-01-21T17:33:30.536Z,11.95
2023-01-21T17:36:16.521Z,11.76
2023-01-21T17:39:00.488Z,11.66
2023-01-21T17:41:46.807Z,11.66
2023-01-21T17:44:31.624Z,11.28
2023-01-21T17:47:23.476Z,11.47
2023-01-21T17:50:23.355Z,11.56
2023-01-21T17:53:15.562Z,11.42
2023-01-21T17:56:02.886Z,11.50
2023-01-21T17:58:53.318Z,11.46
2023-01-21T18:01:38.673Z,11.00
2023-01-21T18:04:23.676Z,10.93
2023-01-21T18:07:19.661Z,11.14
2023-01-21T18:10:05.822Z,11.14
2023-01-21T18:12:50.827Z,11.06
2023-01-21T18:15:36.580Z,10.83
2023-01-21T18:18:22.972Z,11.22
2023-01-21T18:21:08.428Z,11.22
2023-01-21T18:23:53.000Z,11.12
2023-01-21T18:26:38.996Z,11.11
2023-01-21T18:29:24.146Z,11.34
2023-01-21T18:32:13.577Z,11.29
2023-01-21T18:34:58.138Z,11.28
2023-01-21T18:37:42.750Z,11.30
2023-01-21T18:40:26.727Z,11.34
2023-01-21T18:43:11.226Z,11.43
2023-01-21T18:45:56.290Z,11.40
2023-01-21T18:48:43.225Z,11.35
2023-01-21T18:51:29.001Z,11.51
2023-01-21T18:54:15.470Z,11.76
2023-01-21T18:57:01.351Z,11.64
2023-01-21T18:59:45.597Z,11.44
2023-01-21T19:02:29.704Z,11.49
2023-01-21T19:05:17.342Z,11.58
2023-01-21T19:08:02.500Z,11.41
2023-01-21T19:10:47.055Z,11.52
2023-01-21T19:13:31.264Z,11.68
2023-01-21T19:16:19.424Z,11.83
2023-01-21T19:19:11.855Z,11.80
2023-01-21T19:21:58.466Z,11.71
2023-01-21T19:24:44.000Z,11.65
2023-01-21T19:27:30.701Z,11.78
2023-01-21T19:30:23.570Z,11.80
2023-01-21T19:33:08.432Z,11.63
2023-01-21T19:36:00.212Z,11.24
2023-01-21T19:38:48.722Z,11.67
2023-01-21T19:41:32.948Z,10.99
2023-01-21T19:44:18.066Z,11.34
2023-01-21T19:47:03.960Z,11.59
2023-01-21T19:49:48.761Z,11.49
2023-01-21T19:52:33.703Z,11.42
2023-01-21T19:55:20.849Z,11.43
2023-01-21T19:58:08.736Z,11.34
2023-01-21T20:00:55.171Z,11.12
2023-01-21T20:03:48.079Z,10.93
2023-01-21T20:06:42.985Z,11.11
2023-01-21T20:09:27.936Z,10.87
2023-01-21T20:12:14.328Z,10.89
2023-01-21T20:14:58.791Z,11.04
2023-01-21T20:17:45.294Z,10.97
2023-01-21T20:20:31.524Z,10.87
2023-01-21T20:23:16.908Z,10.96
2023-01-21T20:26:01.628Z,10.97
2023-01-21T20:28:51.602Z,11.07
2023-01-21T20:31:36.108Z,11.05
2023-01-21T20:34:20.229Z,11.14
2023-01-21T20:37:04.538Z,11.10
2023-01-21T20:39:48.637Z,10.97
2023-01-21T20:42:32.743Z,10.25
2023-01-21T20:45:20.364Z,11.07
2023-01-21T20:48:05.521Z,11.04
2023-01-21T20:50:49.860Z,10.96
2023-01-21T20:53:34.328Z,11.31
2023-01-21T20:56:21.454Z,11.20
2023-01-21T20:59:05.504Z,11.24
2023-01-21T21:01:51.945Z,11.22
2023-01-21T21:04:35.920Z,11.42
2023-01-21T21:07:24.101Z,11.59
2023-01-21T21:10:15.563Z,11.54
2023-01-21T21:13:00.105Z,11.72
2023-01-21T21:15:46.669Z,11.48
2023-01-21T21:18:32.110Z,11.78
2023-01-21T21:21:16.073Z,11.93
2023-01-21T21:23:59.866Z,12.01
2023-01-21T21:26:44.629Z,12.07
2023-01-21T21:29:28.553Z,12.11
2023-01-21T21:32:13.709Z,12.13
2023-01-21T21:34:58.908Z,11.70
2023-01-21T21:37:43.659Z,11.68
2023-01-21T21:40:30.284Z,11.64
2023-01-21T21:43:38.960Z,11.35
2023-01-21T21:46:40.529Z,11.51
2023-01-21T21:49:24.389Z,11.58
2023-01-21T21:52:09.763Z,11.42
2023-01-21T21:54:54.943Z,11.61
2023-01-21T21:57:38.916Z,11.34
2023-01-21T22:00:23.199Z,11.10
2023-01-21T22:03:07.749Z,11.07
2023-01-21T22:05:57.935Z,11.27
2023-01-21T22:08:44.352Z,11.63
2023-01-21T22:11:29.521Z,11.32
2023-01-21T22:14:14.054Z,11.56
2023-01-21T22:16:58.070Z,11.98
2023-01-21T22:19:42.105Z,12.06
2023-01-21T22:22:25.978Z,12.10
2023-01-21T22:25:11.951Z,12.00
2023-01-21T22:27:56.088Z,12.01
2023-01-21T22:30:40.220Z,12.09
2023-01-21T22:33:24.245Z,12.35
2023-01-21T22:36:10.665Z,11.87
2023-01-21T22:38:55.386Z,12.07
2023-01-21T22:41:40.847Z,12.03
2023-01-21T22:44:24.975Z,12.01
2023-01-21T22:47:09.034Z,12.27
2023-01-21T22:49:53.056Z,12.14
2023-01-21T22:52:37.351Z,11.87
2023-01-21T22:55:21.327Z,11.57
2023-01-21T22:58:06.793Z,11.79
2023-01-21T23:00:52.158Z,11.50
2023-01-21T23:03:35.930Z,11.65
2023-01-21T23:06:20.058Z,11.58
2023-01-21T23:09:04.167Z,11.53
2023-01-21T23:11:48.512Z,11.09
2023-01-21T23:14:33.648Z,11.76
2023-01-21T23:17:17.860Z,11.57
2023-01-21T23:20:01.510Z,11.68
2023-01-21T23:22:47.391Z,11.69
2023-01-21T23:25:31.204Z,11.66
2023-01-21T23:28:16.241Z,11.80
2023-01-21T23:31:05.156Z,11.52
2023-01-21T23:33:50.855Z,12.02
2023-01-21T23:36:34.759Z,11.85
2023-01-21T23:39:19.101Z,11.82
2023-01-21T23:42:02.934Z,11.99
2023-01-21T23:44:46.840Z,12.02
2023-01-21T23:47:31.919Z,12.23
2023-01-21T23:50:16.494Z,12.34
2023-01-21T23:53:00.589Z,12.16
2023-01-21T23:55:44.464Z,12.25
2023-01-21T23:58:28.214Z,11.77
